sensor_id;sensor_type;location;lat;lon;timestamp;pressure;altitude;pressure_sealevel;temperature;humidity
78299;BME280;67556;55.656;12.590;2023-05-14T00:01:40;102259.03;;;14.04;51.90
78299;BME280;67556;55.656;12.590;2023-05-14T00:04:06;102262.41;;;14.00;51.83
78299;BME280;67556;55.656;12.590;2023-05-14T00:06:41;102249.88;;;13.99;52.38
78299;BME280;67556;55.656;12.590;2023-05-14T00:09:08;102248.94;;;13.98;52.67
78299;BME280;67556;55.656;12.590;2023-05-14T00:11:36;102250.59;;;13.95;53.09
78299;BME280;67556;55.656;12.590;2023-05-14T00:14:04;102251.34;;;13.92;53.13
78299;BME280;67556;55.656;12.590;2023-05-14T00:16:31;102255.84;;;13.93;52.89
78299;BME280;67556;55.656;12.590;2023-05-14T00:18:58;102254.78;;;13.90;52.93
78299;BME280;67556;55.656;12.590;2023-05-14T00:21:31;102246.50;;;13.84;53.13
78299;BME280;67556;55.656;12.590;2023-05-14T00:24:05;102256.47;;;13.86;53.33
78299;BME280;67556;55.656;12.590;2023-05-14T00:26:31;102241.09;;;13.82;54.02
78299;BME280;67556;55.656;12.590;2023-05-14T00:29:05;102229.94;;;13.73;53.77
78299;BME280;67556;55.656;12.590;2023-05-14T00:31:37;102239.88;;;13.76;53.95
78299;BME280;67556;55.656;12.590;2023-05-14T00:34:13;102238.19;;;13.78;52.90
78299;BME280;67556;55.656;12.590;2023-05-14T00:36:39;102238.88;;;13.73;54.00
78299;BME280;67556;55.656;12.590;2023-05-14T00:39:06;102241.44;;;13.70;52.90
78299;BME280;67556;55.656;12.590;2023-05-14T00:41:36;102237.91;;;13.71;52.75
78299;BME280;67556;55.656;12.590;2023-05-14T00:44:07;102233.41;;;13.70;52.42
78299;BME280;67556;55.656;12.590;2023-05-14T00:46:35;102239.69;;;13.71;52.65
78299;BME280;67556;55.656;12.590;2023-05-14T00:49:03;102237.75;;;13.68;52.92
78299;BME280;67556;55.656;12.590;2023-05-14T00:51:35;102233.41;;;13.70;52.22
78299;BME280;67556;55.656;12.590;2023-05-14T00:54:04;102229.81;;;13.70;52.50
78299;BME280;67556;55.656;12.590;2023-05-14T00:56:31;102221.69;;;13.68;52.70
78299;BME280;67556;55.656;12.590;2023-05-14T00:58:58;102219.81;;;13.66;53.17
78299;BME280;67556;55.656;12.590;2023-05-14T01:01:25;102222.56;;;13.67;52.95
78299;BME280;67556;55.656;12.590;2023-05-14T01:03:53;102218.19;;;13.69;53.51
78299;BME280;67556;55.656;12.590;2023-05-14T01:06:29;102220.03;;;13.70;53.31
78299;BME280;67556;55.656;12.590;2023-05-14T01:09:17;102215.63;;;13.72;53.60
78299;BME280;67556;55.656;12.590;2023-05-14T01:11:53;102219.13;;;13.70;53.59
78299;BME280;67556;55.656;12.590;2023-05-14T01:14:23;102221.84;;;13.71;54.05
78299;BME280;67556;55.656;12.590;2023-05-14T01:16:57;102223.66;;;13.72;53.63
78299;BME280;67556;55.656;12.590;2023-05-14T01:19:28;102220.88;;;13.69;53.72
78299;BME280;67556;55.656;12.590;2023-05-14T01:22:01;102222.81;;;13.73;53.63
78299;BME280;67556;55.656;12.590;2023-05-14T01:24:34;102213.97;;;13.75;53.50
78299;BME280;67556;55.656;12.590;2023-05-14T01:27:06;102215.78;;;13.76;53.81
78299;BME280;67556;55.656;12.590;2023-05-14T01:29:36;102211.41;;;13.78;54.63
78299;BME280;67556;55.656;12.590;2023-05-14T01:32:05;102211.34;;;13.76;54.09
78299;BME280;67556;55.656;12.590;2023-05-14T01:34:36;102211.28;;;13.75;54.59
78299;BME280;67556;55.656;12.590;2023-05-14T01:37:06;102212.09;;;13.73;53.63
78299;BME280;67556;55.656;12.590;2023-05-14T01:39:35;102214.03;;;13.76;53.22
78299;BME280;67556;55.656;12.590;2023-05-14T01:42:03;102206.75;;;13.73;53.78
78299;BME280;67556;55.656;12.590;2023-05-14T01:44:30;102211.34;;;13.76;53.15
78299;BME280;67556;55.656;12.590;2023-05-14T01:46:57;102211.34;;;13.76;53.78
78299;BME280;67556;55.656;12.590;2023-05-14T01:49:23;102208.66;;;13.76;53.05
78299;BME280;67556;55.656;12.590;2023-05-14T01:51:56;102207.91;;;13.79;53.51
78299;BME280;67556;55.656;12.590;2023-05-14T01:54:29;102208.81;;;13.79;52.86
78299;BME280;67556;55.656;12.590;2023-05-14T01:57:14;102207.03;;;13.80;52.95
78299;BME280;67556;55.656;12.590;2023-05-14T01:59:40;102212.44;;;13.81;53.71
78299;BME280;67556;55.656;12.590;2023-05-14T02:02:26;102198.72;;;13.73;54.01
78299;BME280;67556;55.656;12.590;2023-05-14T02:04:52;102199.66;;;13.74;53.59
78299;BME280;67556;55.656;12.590;2023-05-14T02:07:19;102198.88;;;13.77;53.86
78299;BME280;67556;55.656;12.590;2023-05-14T02:09:47;102198.59;;;13.70;54.25
78299;BME280;67556;55.656;12.590;2023-05-14T02:12:15;102191.53;;;13.72;54.31
78299;BME280;67556;55.656;12.590;2023-05-14T02:14:44;102194.31;;;13.74;54.37
78299;BME280;67556;55.656;12.590;2023-05-14T02:17:10;102186.19;;;13.72;54.05
78299;BME280;67556;55.656;12.590;2023-05-14T02:19:41;102189.97;;;13.78;54.80
78299;BME280;67556;55.656;12.590;2023-05-14T02:22:13;102189.00;;;13.76;54.96
78299;BME280;67556;55.656;12.590;2023-05-14T02:24:48;102195.13;;;13.73;55.02
78299;BME280;67556;55.656;12.590;2023-05-14T02:27:16;102193.50;;;13.77;54.61
78299;BME280;67556;55.656;12.590;2023-05-14T02:29:44;102196.13;;;13.75;54.18
78299;BME280;67556;55.656;12.590;2023-05-14T02:32:16;102198.50;;;13.69;54.45
78299;BME280;67556;55.656;12.590;2023-05-14T02:34:45;102188.59;;;13.66;54.91
78299;BME280;67556;55.656;12.590;2023-05-14T02:37:11;102187.34;;;13.58;54.42
78299;BME280;67556;55.656;12.590;2023-05-14T02:39:37;102191.91;;;13.61;54.87
78299;BME280;67556;55.656;12.590;2023-05-14T02:42:07;102192.69;;;13.58;55.14
78299;BME280;67556;55.656;12.590;2023-05-14T02:44:35;102185.53;;;13.57;54.84
78299;BME280;67556;55.656;12.590;2023-05-14T02:47:02;102188.00;;;13.53;54.91
78299;BME280;67556;55.656;12.590;2023-05-14T02:49:29;102188.09;;;13.56;55.44
78299;BME280;67556;55.656;12.590;2023-05-14T02:51:57;102186.22;;;13.53;54.84
78299;BME280;67556;55.656;12.590;2023-05-14T02:54:30;102187.75;;;13.48;56.09
78299;BME280;67556;55.656;12.590;2023-05-14T02:57:02;102183.09;;;13.44;56.35
78299;BME280;67556;55.656;12.590;2023-05-14T02:59:36;102183.69;;;13.37;56.75
78299;BME280;67556;55.656;12.590;2023-05-14T03:02:04;102187.44;;;13.40;57.03
78299;BME280;67556;55.656;12.590;2023-05-14T03:04:31;102174.09;;;13.42;56.89
78299;BME280;67556;55.656;12.590;2023-05-14T03:07:06;102186.47;;;13.40;56.91
78299;BME280;67556;55.656;12.590;2023-05-14T03:09:34;102182.91;;;13.39;56.41
78299;BME280;67556;55.656;12.590;2023-05-14T03:12:00;102182.91;;;13.39;57.06
78299;BME280;67556;55.656;12.590;2023-05-14T03:14:27;102175.94;;;13.43;57.42
78299;BME280;67556;55.656;12.590;2023-05-14T03:16:55;102175.16;;;13.45;56.66
78299;BME280;67556;55.656;12.590;2023-05-14T03:19:27;102182.06;;;13.40;57.01
78299;BME280;67556;55.656;12.590;2023-05-14T03:21:53;102178.59;;;13.43;57.34
78299;BME280;67556;55.656;12.590;2023-05-14T03:24:20;102174.75;;;13.36;57.00
78299;BME280;67556;55.656;12.590;2023-05-14T03:26:46;102165.94;;;13.39;57.84
78299;BME280;67556;55.656;12.590;2023-05-14T03:29:31;102176.94;;;13.45;57.45
78299;BME280;67556;55.656;12.590;2023-05-14T03:32:13;102178.53;;;13.41;57.61
78299;BME280;67556;55.656;12.590;2023-05-14T03:34:58;102176.94;;;13.45;57.57
78299;BME280;67556;55.656;12.590;2023-05-14T03:37:42;102175.78;;;13.40;57.33
78299;BME280;67556;55.656;12.590;2023-05-14T03:40:10;102171.22;;;13.37;57.28
78299;BME280;67556;55.656;12.590;2023-05-14T03:42:36;102173.03;;;13.38;57.45
78299;BME280;67556;55.656;12.590;2023-05-14T03:45:21;102166.84;;;13.39;57.43
78299;BME280;67556;55.656;12.590;2023-05-14T03:47:55;102167.03;;;13.44;57.22
78299;BME280;67556;55.656;12.590;2023-05-14T03:50:31;102159.88;;;13.43;56.81
78299;BME280;67556;55.656;12.590;2023-05-14T03:53:07;102158.03;;;13.42;57.84
78299;BME280;67556;55.656;12.590;2023-05-14T03:55:51;102159.72;;;13.40;57.84
78299;BME280;67556;55.656;12.590;2023-05-14T03:58:18;102154.09;;;13.34;57.43
78299;BME280;67556;55.656;12.590;2023-05-14T04:00:46;102160.56;;;13.39;58.17
78299;BME280;67556;55.656;12.590;2023-05-14T04:03:14;102158.03;;;13.42;57.38
78299;BME280;67556;55.656;12.590;2023-05-14T04:05:50;102156.06;;;13.38;57.89
78299;BME280;67556;55.656;12.590;2023-05-14T04:08:31;102157.00;;;13.38;57.95
78299;BME280;67556;55.656;12.590;2023-05-14T04:11:15;102155.94;;;13.35;58.22
78299;BME280;67556;55.656;12.590;2023-05-14T04:13:48;102152.53;;;13.39;58.05
78299;BME280;67556;55.656;12.590;2023-05-14T04:16:23;102150.97;;;13.44;57.77
78299;BME280;67556;55.656;12.590;2023-05-14T04:18:57;102159.09;;;13.45;58.88
78299;BME280;67556;55.656;12.590;2023-05-14T04:21:25;102151.94;;;13.44;58.63
78299;BME280;67556;55.656;12.590;2023-05-14T04:23:53;102155.44;;;13.43;59.36
78299;BME280;67556;55.656;12.590;2023-05-14T04:26:26;102150.38;;;13.50;59.13
78299;BME280;67556;55.656;12.590;2023-05-14T04:28:52;102162.28;;;13.37;60.05
78299;BME280;67556;55.656;12.590;2023-05-14T04:31:19;102150.88;;;13.41;59.89
78299;BME280;67556;55.656;12.590;2023-05-14T04:33:51;102159.38;;;13.52;58.69
78299;BME280;67556;55.656;12.590;2023-05-14T04:36:31;102145.06;;;13.51;59.67
78299;BME280;67556;55.656;12.590;2023-05-14T04:38:58;102141.47;;;13.51;59.67
78299;BME280;67556;55.656;12.590;2023-05-14T04:41:30;102155.00;;;13.54;59.90
78299;BME280;67556;55.656;12.590;2023-05-14T04:43:59;102153.91;;;13.48;60.22
78299;BME280;67556;55.656;12.590;2023-05-14T04:46:35;102152.25;;;13.52;60.22
78299;BME280;67556;55.656;12.590;2023-05-14T04:49:07;102161.22;;;13.53;60.37
78299;BME280;67556;55.656;12.590;2023-05-14T04:51:46;102155.88;;;13.53;60.80
78299;BME280;67556;55.656;12.590;2023-05-14T04:54:14;102155.13;;;13.57;61.38
78299;BME280;67556;55.656;12.590;2023-05-14T04:56:41;102155.28;;;13.60;60.87
78299;BME280;67556;55.656;12.590;2023-05-14T04:59:26;102162.53;;;13.62;60.94
78299;BME280;67556;55.656;12.590;2023-05-14T05:02:00;102152.59;;;13.60;61.39
78299;BME280;67556;55.656;12.590;2023-05-14T05:04:35;102160.31;;;13.73;61.34
78299;BME280;67556;55.656;12.590;2023-05-14T05:07:09;102156.53;;;13.68;60.77
78299;BME280;67556;55.656;12.590;2023-05-14T05:09:41;102157.72;;;13.75;61.27
78299;BME280;67556;55.656;12.590;2023-05-14T05:12:15;102164.19;;;13.80;60.08
78299;BME280;67556;55.656;12.590;2023-05-14T05:14:47;102163.47;;;13.84;60.21
78299;BME280;67556;55.656;12.590;2023-05-14T05:17:19;102159.81;;;13.82;59.61
78299;BME280;67556;55.656;12.590;2023-05-14T05:19:46;102160.09;;;13.88;59.89
78299;BME280;67556;55.656;12.590;2023-05-14T05:22:14;102165.69;;;13.94;59.28
78299;BME280;67556;55.656;12.590;2023-05-14T05:24:59;102165.84;;;13.97;59.57
78299;BME280;67556;55.656;12.590;2023-05-14T05:27:40;102169.75;;;14.05;59.19
78299;BME280;67556;55.656;12.590;2023-05-14T05:30:10;102147.56;;;14.08;58.74
78299;BME280;67556;55.656;12.590;2023-05-14T05:32:44;102167.94;;;14.25;58.56
78299;BME280;67556;55.656;12.590;2023-05-14T05:35:10;102155.78;;;14.33;56.98
78299;BME280;67556;55.656;12.590;2023-05-14T05:37:41;102158.69;;;14.39;56.95
78299;BME280;67556;55.656;12.590;2023-05-14T05:40:12;102160.50;;;14.40;55.95
78299;BME280;67556;55.656;12.590;2023-05-14T05:42:40;102150.66;;;14.39;56.73
78299;BME280;67556;55.656;12.590;2023-05-14T05:45:08;102160.59;;;14.42;56.26
78299;BME280;67556;55.656;12.590;2023-05-14T05:47:47;102150.06;;;14.46;56.07
78299;BME280;67556;55.656;12.590;2023-05-14T05:50:13;102161.38;;;14.60;55.81
78299;BME280;67556;55.656;12.590;2023-05-14T05:52:53;102153.66;;;14.68;55.21
78299;BME280;67556;55.656;12.590;2023-05-14T05:55:29;102157.84;;;14.84;55.44
78299;BME280;67556;55.656;12.590;2023-05-14T05:58:03;102167.22;;;14.95;54.92
78299;BME280;67556;55.656;12.590;2023-05-14T06:00:48;102161.13;;;14.99;53.23
78299;BME280;67556;55.656;12.590;2023-05-14T06:03:17;102156.66;;;15.00;53.50
78299;BME280;67556;55.656;12.590;2023-05-14T06:06:02;102149.59;;;15.02;53.16
78299;BME280;67556;55.656;12.590;2023-05-14T06:08:32;102157.03;;;15.09;53.55
78299;BME280;67556;55.656;12.590;2023-05-14T06:10:58;102153.72;;;15.16;52.64
78299;BME280;67556;55.656;12.590;2023-05-14T06:13:25;102146.69;;;15.19;52.84
78299;BME280;67556;55.656;12.590;2023-05-14T06:16:11;102146.22;;;15.30;52.94
78299;BME280;67556;55.656;12.590;2023-05-14T06:18:37;102153.53;;;15.34;52.44
78299;BME280;67556;55.656;12.590;2023-05-14T06:21:17;102144.94;;;15.44;53.13
78299;BME280;67556;55.656;12.590;2023-05-14T06:24:04;102148.69;;;15.49;52.90
78299;BME280;67556;55.656;12.590;2023-05-14T06:26:30;102145.50;;;15.59;52.07
78299;BME280;67556;55.656;12.590;2023-05-14T06:28:57;102144.69;;;15.62;51.32
78299;BME280;67556;55.656;12.590;2023-05-14T06:31:39;102152.28;;;15.72;51.99
78299;BME280;67556;55.656;12.590;2023-05-14T06:34:09;102146.34;;;15.82;51.32
78299;BME280;67556;55.656;12.590;2023-05-14T06:36:47;102143.09;;;15.92;51.54
78299;BME280;67556;55.656;12.590;2023-05-14T06:39:21;102142.47;;;16.00;51.70
78299;BME280;67556;55.656;12.590;2023-05-14T06:41:48;102140.81;;;16.03;51.33
78299;BME280;67556;55.656;12.590;2023-05-14T06:44:17;102133.38;;;15.96;51.72
78299;BME280;67556;55.656;12.590;2023-05-14T06:46:45;102156.28;;;16.10;51.36
78299;BME280;67556;55.656;12.590;2023-05-14T06:49:11;102151.75;;;16.09;50.40
78299;BME280;67556;55.656;12.590;2023-05-14T06:51:56;102148.38;;;16.15;50.45
78299;BME280;67556;55.656;12.590;2023-05-14T06:54:30;102148.44;;;16.16;50.67
78299;BME280;67556;55.656;12.590;2023-05-14T06:57:04;102148.56;;;16.21;50.59
78299;BME280;67556;55.656;12.590;2023-05-14T06:59:44;102142.44;;;16.25;50.44
78299;BME280;67556;55.656;12.590;2023-05-14T07:02:18;102148.81;;;16.27;50.10
78299;BME280;67556;55.656;12.590;2023-05-14T07:04:46;102145.03;;;16.22;49.95
78299;BME280;67556;55.656;12.590;2023-05-14T07:07:24;102140.34;;;16.16;50.25
78299;BME280;67556;55.656;12.590;2023-05-14T07:10:01;102152.75;;;16.11;50.49
78299;BME280;67556;55.656;12.590;2023-05-14T07:12:36;102141.13;;;16.12;50.85
78299;BME280;67556;55.656;12.590;2023-05-14T07:15:12;102158.16;;;16.13;50.74
78299;BME280;67556;55.656;12.590;2023-05-14T07:17:39;102161.00;;;16.17;51.04
78299;BME280;67556;55.656;12.590;2023-05-14T07:20:15;102150.25;;;16.17;51.02
78299;BME280;67556;55.656;12.590;2023-05-14T07:22:41;102135.81;;;16.14;51.01
78299;BME280;67556;55.656;12.590;2023-05-14T07:25:24;102146.81;;;16.21;51.52
78299;BME280;67556;55.656;12.590;2023-05-14T07:28:09;102152.28;;;16.25;50.90
78299;BME280;67556;55.656;12.590;2023-05-14T07:30:36;102151.41;;;16.26;50.33
78299;BME280;67556;55.656;12.590;2023-05-14T07:33:03;102153.84;;;16.18;50.56
78299;BME280;67556;55.656;12.590;2023-05-14T07:35:35;102156.91;;;16.29;50.17
78299;BME280;67556;55.656;12.590;2023-05-14T07:38:02;102157.94;;;16.32;50.65
78299;BME280;67556;55.656;12.590;2023-05-14T07:40:56;102163.66;;;16.43;51.33
78299;BME280;67556;55.656;12.590;2023-05-14T07:43:22;102150.41;;;16.49;51.19
78299;BME280;67556;55.656;12.590;2023-05-14T07:45:58;102150.59;;;16.55;51.01
78299;BME280;67556;55.656;12.590;2023-05-14T07:48:29;102148.88;;;16.57;51.23
78299;BME280;67556;55.656;12.590;2023-05-14T07:51:01;102148.22;;;16.64;50.75
78299;BME280;67556;55.656;12.590;2023-05-14T07:53:30;102139.06;;;16.59;50.19
78299;BME280;67556;55.656;12.590;2023-05-14T07:56:07;102140.72;;;16.54;50.64
78299;BME280;67556;55.656;12.590;2023-05-14T07:58:33;102128.38;;;16.61;50.86
78299;BME280;67556;55.656;12.590;2023-05-14T08:01:00;102137.63;;;16.69;50.47
78299;BME280;67556;55.656;12.590;2023-05-14T08:03:49;102129.00;;;16.79;50.36
78299;BME280;67556;55.656;12.590;2023-05-14T08:06:28;102124.66;;;16.84;49.57
78299;BME280;67556;55.656;12.590;2023-05-14T08:08:55;102120.19;;;16.85;49.43
78299;BME280;67556;55.656;12.590;2023-05-14T08:11:29;102122.19;;;16.92;48.54
78299;BME280;67556;55.656;12.590;2023-05-14T08:13:56;102121.56;;;17.01;48.48
78299;BME280;67556;55.656;12.590;2023-05-14T08:16:35;102109.13;;;17.04;48.62
78299;BME280;67556;55.656;12.590;2023-05-14T08:19:11;102117.41;;;17.12;48.19
78299;BME280;67556;55.656;12.590;2023-05-14T08:21:43;102110.41;;;17.18;47.91
78299;BME280;67556;55.656;12.590;2023-05-14T08:24:11;102109.63;;;17.23;47.76
78299;BME280;67556;55.656;12.590;2023-05-14T08:26:57;102108.94;;;17.28;48.26
78299;BME280;67556;55.656;12.590;2023-05-14T08:29:26;102097.25;;;17.28;47.59
78299;BME280;67556;55.656;12.590;2023-05-14T08:31:54;102106.41;;;17.36;47.53
78299;BME280;67556;55.656;12.590;2023-05-14T08:34:39;102101.03;;;17.36;47.76
78299;BME280;67556;55.656;12.590;2023-05-14T08:37:06;102095.31;;;17.55;47.24
78299;BME280;67556;55.656;12.590;2023-05-14T08:39:51;102095.63;;;17.67;46.09
78299;BME280;67556;55.656;12.590;2023-05-14T08:42:38;102089.50;;;17.73;45.84
78299;BME280;67556;55.656;12.590;2023-05-14T08:45:10;102092.41;;;17.79;46.47
78299;BME280;67556;55.656;12.590;2023-05-14T08:47:57;102088.25;;;17.92;45.20
78299;BME280;67556;55.656;12.590;2023-05-14T08:50:25;102078.63;;;18.03;45.08
78299;BME280;67556;55.656;12.590;2023-05-14T08:52:55;102088.69;;;18.10;44.41
78299;BME280;67556;55.656;12.590;2023-05-14T08:55:40;102081.69;;;18.17;44.75
78299;BME280;67556;55.656;12.590;2023-05-14T08:58:09;102082.91;;;18.31;44.63
78299;BME280;67556;55.656;12.590;2023-05-14T09:00:54;102087.78;;;18.48;45.01
78299;BME280;67556;55.656;12.590;2023-05-14T09:03:21;102081.78;;;18.59;44.41
78299;BME280;67556;55.656;12.590;2023-05-14T09:06:07;102089.16;;;18.68;44.82
78299;BME280;67556;55.656;12.590;2023-05-14T09:08:34;102084.91;;;18.78;43.81
78299;BME280;67556;55.656;12.590;2023-05-14T09:11:11;102083.88;;;18.71;44.49
78299;BME280;67556;55.656;12.590;2023-05-14T09:13:57;102079.09;;;18.61;44.61
78299;BME280;67556;55.656;12.590;2023-05-14T09:16:24;102080.16;;;18.67;44.44
78299;BME280;67556;55.656;12.590;2023-05-14T09:19:11;102076.72;;;18.73;43.75
78299;BME280;67556;55.656;12.590;2023-05-14T09:21:57;102072.22;;;18.74;43.05
78299;BME280;67556;55.656;12.590;2023-05-14T09:24:26;102064.19;;;18.75;43.19
78299;BME280;67556;55.656;12.590;2023-05-14T09:27:17;102076.09;;;18.85;43.01
78299;BME280;67556;55.656;12.590;2023-05-14T09:30:09;102068.63;;;18.75;43.46
78299;BME280;67556;55.656;12.590;2023-05-14T09:32:37;102061.59;;;18.80;42.96
78299;BME280;67556;55.656;12.590;2023-05-14T09:35:23;102067.97;;;18.85;43.01
78299;BME280;67556;55.656;12.590;2023-05-14T09:37:53;102052.84;;;18.93;42.44
78299;BME280;67556;55.656;12.590;2023-05-14T09:40:39;102058.38;;;18.99;42.63
78299;BME280;67556;55.656;12.590;2023-05-14T09:43:11;102050.50;;;19.10;42.43
78299;BME280;67556;55.656;12.590;2023-05-14T09:45:54;102048.00;;;19.20;42.64
78299;BME280;67556;55.656;12.590;2023-05-14T09:48:28;102049.88;;;19.25;42.79
78299;BME280;67556;55.656;12.590;2023-05-14T09:50:56;102051.94;;;19.38;42.11
78299;BME280;67556;55.656;12.590;2023-05-14T09:53:42;102051.31;;;19.51;41.59
78299;BME280;67556;55.656;12.590;2023-05-14T09:56:09;102057.63;;;19.53;42.33
78299;BME280;67556;55.656;12.590;2023-05-14T09:58:54;102047.06;;;19.64;41.70
78299;BME280;67556;55.656;12.590;2023-05-14T10:01:22;102043.63;;;19.73;41.45
78299;BME280;67556;55.656;12.590;2023-05-14T10:04:02;102047.31;;;19.79;41.75
78299;BME280;67556;55.656;12.590;2023-05-14T10:06:50;102033.94;;;19.88;40.95
78299;BME280;67556;55.656;12.590;2023-05-14T10:09:26;102033.88;;;19.84;40.77
78299;BME280;67556;55.656;12.590;2023-05-14T10:12:01;102042.25;;;19.99;41.49
78299;BME280;67556;55.656;12.590;2023-05-14T10:14:34;102042.47;;;20.11;41.36
78299;BME280;67556;55.656;12.590;2023-05-14T10:17:04;102040.66;;;20.13;40.29
78299;BME280;67556;55.656;12.590;2023-05-14T10:19:52;102044.19;;;20.06;40.44
78299;BME280;67556;55.656;12.590;2023-05-14T10:22:22;102049.13;;;19.79;40.38
78299;BME280;67556;55.656;12.590;2023-05-14T10:24:51;102061.72;;;19.31;40.76
78299;BME280;67556;55.656;12.590;2023-05-14T10:27:37;102060.06;;;18.94;39.19
78299;BME280;67556;55.656;12.590;2023-05-14T10:30:20;102065.72;;;18.65;41.76
78299;BME280;67556;55.656;12.590;2023-05-14T10:33:08;102067.59;;;18.29;43.67
78299;BME280;67556;55.656;12.590;2023-05-14T10:35:59;102074.78;;;18.30;43.45
78299;BME280;67556;55.656;12.590;2023-05-14T10:38:28;102072.00;;;18.27;44.36
78299;BME280;67556;55.656;12.590;2023-05-14T10:40:58;102065.28;;;18.08;43.40
78299;BME280;67556;55.656;12.590;2023-05-14T10:43:42;102059.84;;;17.73;42.58
78299;BME280;67556;55.656;12.590;2023-05-14T10:46:28;102060.50;;;17.64;43.51
78299;BME280;67556;55.656;12.590;2023-05-14T10:49:10;102056.94;;;17.65;43.31
78299;BME280;67556;55.656;12.590;2023-05-14T10:51:38;102060.47;;;17.61;43.24
78299;BME280;67556;55.656;12.590;2023-05-14T10:54:15;102051.41;;;17.59;43.11
78299;BME280;67556;55.656;12.590;2023-05-14T10:56:48;102043.22;;;17.88;43.49
78299;BME280;67556;55.656;12.590;2023-05-14T10:59:15;102040.88;;;18.03;41.61
78299;BME280;67556;55.656;12.590;2023-05-14T11:02:03;102038.56;;;18.18;42.23
78299;BME280;67556;55.656;12.590;2023-05-14T11:04:31;102036.25;;;18.35;42.64
78299;BME280;67556;55.656;12.590;2023-05-14T11:06:59;102041.03;;;18.49;41.26
78299;BME280;67556;55.656;12.590;2023-05-14T11:09:28;102040.97;;;18.45;39.49
78299;BME280;67556;55.656;12.590;2023-05-14T11:12:07;102041.91;;;18.46;40.61
78299;BME280;67556;55.656;12.590;2023-05-14T11:14:35;102033.94;;;18.52;41.96
78299;BME280;67556;55.656;12.590;2023-05-14T11:17:07;102027.63;;;18.50;40.42
78299;BME280;67556;55.656;12.590;2023-05-14T11:19:37;102024.97;;;18.53;40.69
78299;BME280;67556;55.656;12.590;2023-05-14T11:22:16;102014.34;;;18.62;42.21
78299;BME280;67556;55.656;12.590;2023-05-14T11:25:00;102018.44;;;18.83;40.04
78299;BME280;67556;55.656;12.590;2023-05-14T11:27:29;102017.69;;;18.90;39.84
78299;BME280;67556;55.656;12.590;2023-05-14T11:30:12;102008.03;;;19.01;40.65
78299;BME280;67556;55.656;12.590;2023-05-14T11:32:48;102001.81;;;19.07;39.19
78299;BME280;67556;55.656;12.590;2023-05-14T11:35:17;102000.34;;;19.24;37.66
78299;BME280;67556;55.656;12.590;2023-05-14T11:38:00;101992.47;;;19.35;37.26
78299;BME280;67556;55.656;12.590;2023-05-14T11:40:28;101992.75;;;19.52;36.75
78299;BME280;67556;55.656;12.590;2023-05-14T11:42:55;101985.91;;;19.71;36.88
78299;BME280;67556;55.656;12.590;2023-05-14T11:45:40;101989.75;;;19.85;36.61
78299;BME280;67556;55.656;12.590;2023-05-14T11:48:12;101980.81;;;19.89;36.76
78299;BME280;67556;55.656;12.590;2023-05-14T11:50:59;101975.63;;;20.04;36.56
78299;BME280;67556;55.656;12.590;2023-05-14T11:53:32;101972.97;;;20.09;34.61
78299;BME280;67556;55.656;12.590;2023-05-14T11:56:04;101977.50;;;20.10;33.85
78299;BME280;67556;55.656;12.590;2023-05-14T11:58:36;101974.06;;;20.22;34.31
78299;BME280;67556;55.656;12.590;2023-05-14T12:01:21;101969.84;;;20.42;34.68
78299;BME280;67556;55.656;12.590;2023-05-14T12:03:54;101970.94;;;20.53;34.04
78299;BME280;67556;55.656;12.590;2023-05-14T12:06:30;101962.13;;;20.70;33.62
78299;BME280;67556;55.656;12.590;2023-05-14T12:08:58;101966.69;;;20.74;33.12
78299;BME280;67556;55.656;12.590;2023-05-14T12:11:29;101960.41;;;20.79;33.41
78299;BME280;67556;55.656;12.590;2023-05-14T12:13:58;101960.66;;;20.99;32.34
78299;BME280;67556;55.656;12.590;2023-05-14T12:16:29;101962.38;;;20.91;31.63
78299;BME280;67556;55.656;12.590;2023-05-14T12:19:02;101953.31;;;20.89;31.45
78299;BME280;67556;55.656;12.590;2023-05-14T12:21:47;101955.31;;;21.08;31.82
78299;BME280;67556;55.656;12.590;2023-05-14T12:24:16;101950.84;;;21.15;30.81
78299;BME280;67556;55.656;12.590;2023-05-14T12:26:44;101950.03;;;21.24;30.76
78299;BME280;67556;55.656;12.590;2023-05-14T12:29:17;101945.72;;;21.39;31.48
78299;BME280;67556;55.656;12.590;2023-05-14T12:31:49;101940.22;;;21.32;30.62
78299;BME280;67556;55.656;12.590;2023-05-14T12:34:16;101938.50;;;21.40;30.71
78299;BME280;67556;55.656;12.590;2023-05-14T12:36:56;101947.47;;;21.33;30.80
78299;BME280;67556;55.656;12.590;2023-05-14T12:39:23;101942.84;;;21.27;31.26
78299;BME280;67556;55.656;12.590;2023-05-14T12:42:01;101940.97;;;21.18;30.43
78299;BME280;67556;55.656;12.590;2023-05-14T12:44:28;101939.94;;;21.06;31.23
78299;BME280;67556;55.656;12.590;2023-05-14T12:46:59;101937.38;;;21.20;31.42
78299;BME280;67556;55.656;12.590;2023-05-14T12:49:25;101939.03;;;21.05;30.95
78299;BME280;67556;55.656;12.590;2023-05-14T12:51:51;101933.56;;;21.02;31.20
78299;BME280;67556;55.656;12.590;2023-05-14T12:54:36;101934.50;;;21.03;31.52
78299;BME280;67556;55.656;12.590;2023-05-14T12:57:05;101933.75;;;21.19;31.85
78299;BME280;67556;55.656;12.590;2023-05-14T12:59:32;101922.13;;;21.29;30.97
78299;BME280;67556;55.656;12.590;2023-05-14T13:02:03;101919.25;;;21.12;30.97
78299;BME280;67556;55.656;12.590;2023-05-14T13:04:30;101918.38;;;21.18;31.42
78299;BME280;67556;55.656;12.590;2023-05-14T13:06:59;101908.47;;;21.22;31.14
78299;BME280;67556;55.656;12.590;2023-05-14T13:09:28;101903.09;;;21.25;31.22
78299;BME280;67556;55.656;12.590;2023-05-14T13:12:02;101901.47;;;21.42;31.89